createdAt,value
2018-07-16T00:00:04.815Z,60.10
2018-07-16T00:15:09.173Z,60.43
2018-07-16T00:30:13.435Z,61.80
2018-07-16T00:45:17.800Z,63.81
2018-07-16T01:00:22.042Z,63.98
2018-07-16T01:15:26.493Z,65.05
2018-07-16T01:30:30.834Z,65.56
2018-07-16T01:45:35.230Z,65.79
2018-07-16T02:01:10.446Z,66.78
2018-07-16T02:16:14.786Z,68.79
2018-07-16T02:31:19.223Z,69.42
2018-07-16T02:46:23.801Z,68.43
2018-07-16T03:01:27.934Z,68.63
2018-07-16T03:16:32.138Z,68.87
2018-07-16T03:31:36.286Z,67.62
2018-07-16T03:46:40.519Z,65.45
2018-07-16T04:01:44.708Z,62.02
2018-07-16T04:16:48.966Z,59.57
2018-07-16T04:31:53.027Z,53.35
2018-07-16T04:46:57.246Z,50.53
2018-07-16T05:02:01.862Z,46.22
2018-07-16T05:17:06.077Z,46.06
2018-07-16T05:32:10.313Z,44.42
2018-07-16T05:47:14.786Z,41.60
2018-07-16T06:02:19.101Z,37.66
2018-07-16T06:17:23.443Z,35.51
2018-07-16T06:32:27.883Z,36.07
2018-07-16T06:47:32.147Z,36.93
2018-07-16T07:02:36.440Z,32.40
2018-07-16T07:17:40.920Z,30.76
2018-07-16T07:32:45.383Z,30.36
2018-07-16T07:47:49.600Z,30.55
2018-07-16T08:02:53.791Z,32.73
2018-07-16T08:17:58.182Z,28.17
2018-07-16T08:33:02.886Z,26.03
2018-07-16T08:48:07.188Z,22.79
2018-07-16T09:03:11.425Z,28.81
2018-07-16T09:18:15.774Z,27.06
2018-07-16T09:33:20.057Z,24.03
2018-07-16T09:48:24.310Z,23.63
2018-07-16T10:03:28.770Z,23.25
2018-07-16T10:18:33.266Z,21.08
2018-07-16T10:33:37.879Z,21.04
2018-07-16T10:48:42.373Z,19.56
2018-07-16T11:03:46.605Z,20.78
2018-07-16T11:18:50.946Z,22.31
2018-07-16T11:33:55.266Z,22.36
2018-07-16T11:48:59.602Z,24.83
2018-07-16T12:04:03.992Z,25.04
2018-07-16T12:19:08.345Z,26.05
2018-07-16T12:34:12.628Z,28.23
2018-07-16T12:49:16.924Z,26.78
2018-07-16T13:04:21.355Z,28.84
2018-07-16T13:19:25.425Z,30.00
2018-07-16T13:34:30.650Z,30.88
2018-07-16T13:49:34.894Z,32.97
2018-07-16T14:04:39.448Z,31.92
2018-07-16T14:19:44.058Z,32.45
2018-07-16T14:34:48.217Z,32.56
2018-07-16T14:49:52.208Z,33.81
2018-07-16T15:04:56.497Z,34.60
2018-07-16T15:20:01.066Z,34.73
2018-07-16T15:35:05.234Z,34.77
2018-07-16T15:50:09.727Z,36.31
